• Join FlightAware (Why Join?)
  • Login
  • US Flag 
08:58PM EST


 

Airport Tracker/Info


-or-


 

Live Flight TrackerFlight Track Log ✈ FD480 ✈ 10-May-2013 ✈ YCKN / CTN - YBCS / CNS

Flight Track Log - Related Links

Times and Time Zones

All times are in EDT time to prevent confusion due to time zone crossing. See the FD480 flight status page for this flight to view local times or setup timezone preferences in your user account.

Time Position Orientation Groundspeed Altitude Reporting Facility
EDT Latitude Longitude Course Direction KTS MPH feet Rate Location/Type
02:53AM -15.5097 145.2398 166° South 134 154 5,200  Level Aus ATC (RADAR)
02:53AM -15.5384 145.2473 166° South 140 161 6,400 1,500 Climbing Aus ATC (RADAR)
02:54AM -15.5547 145.2534 160° South 145 167 7,000 1,680 Climbing Aus ATC (RADAR)
02:55AM -15.5900 145.2616 167° South 150 173 8,500 1,680 Climbing Aus ATC (RADAR)
02:55AM -15.6139 145.2726 156° South 156 180 9,400 1,560 Climbing Aus ATC (RADAR)
02:56AM -15.6414 145.2863 154° Southeast 163 188 10,500 1,500 Climbing Aus ATC (RADAR)
02:57AM -15.6750 145.2986 161° South 170 196 11,600 1,620 Climbing Aus ATC (RADAR)
02:57AM -15.6938 145.3055 161° South 170 196 12,400 1,440 Climbing Aus ATC (RADAR)
02:58AM -15.7248 145.3176 159° South 178 205 13,200 480 Climbing Aus ATC (RADAR)
02:58AM -15.7690 145.3340 160° South 224 258 13,100 -120 Descending Aus ATC (RADAR)
02:59AM -15.8068 145.3450 164° South 240 276 13,100  Level Aus ATC (RADAR)
03:00AM -15.8781 145.3658 164° South 247 284 13,100  Level Aus ATC (RADAR)
03:00AM -15.9059 145.3744 163° South 249 287 13,100  Level Aus ATC (RADAR)
03:01AM -15.9446 145.3870 163° South 248 285 13,100  Level Aus ATC (RADAR)
03:02AM -15.9892 145.4012 163° South 249 287 13,100  Level Aus ATC (RADAR)
03:02AM -16.0278 145.4139 163° South 248 285 13,100  Level Aus ATC (RADAR)
03:03AM -16.0777 145.4307 162° South 250 288 13,100  Level Aus ATC (RADAR)
03:03AM -16.1053 145.4397 163° South 249 287 13,100  Level Aus ATC (RADAR)
03:04AM -16.1495 145.4549 162° South 250 288 13,100  Level Aus ATC (RADAR)
03:05AM -16.2151 145.4781 161° South 247 284 13,100  Level Aus ATC (RADAR)
03:06AM -16.2481 145.4897 161° South 248 285 13,100 -300 Level Aus ATC (RADAR)
03:06AM -16.2866 145.5036 161° South 251 289 12,800 -1,320 Descending Aus ATC (RADAR)
03:07AM -16.3279 145.5165 163° South 265 305 11,600 -1,800 Descending Aus ATC (RADAR)
03:07AM -16.3737 145.5289 165° South 255 293 10,600 -1,380 Descending Aus ATC (RADAR)
03:08AM -16.4224 145.5448 163° South 243 280 9,700 -1,320 Descending Aus ATC (RADAR)
03:09AM -16.4492 145.5545 161° South 243 280 9,100 -1,620 Descending Aus ATC (RADAR)
03:09AM -16.4865 145.5681 161° South 244 281 8,100 -1,560 Descending Aus ATC (RADAR)
03:10AM -16.5537 145.6022 154° Southeast 226 260 6,400 -1,380 Descending Aus ATC (RADAR)
03:11AM -16.5759 145.6143 152° Southeast 219 252 6,000 -1,020 Descending Aus ATC (RADAR)
03:11AM -16.6130 145.6286 160° South 214 246 5,300 -1,200 Descending Aus ATC (RADAR)
03:12AM -16.6542 145.6449 159° South 212 244 4,300 -1,200 Descending Aus ATC (RADAR)
03:12AM -16.6640 145.6500 156° South 198 228 4,100 -1,080 Descending FlightAware
03:13AM -16.6842 145.6588 156° South 203 234 3,700 -1,200 Descending Aus ATC (RADAR)
03:13AM -16.6860 145.6600 156° South 198 228 3,600 -1,020 Descending FlightAware
03:13AM -16.7100 145.6710 156° South 176 203 3,100 -1,140 Descending FlightAware
03:14AM -16.7273 145.6787 156° South 184 212 2,700 -840 Descending Aus ATC (RADAR)
03:14AM -16.7320 145.6820 156° South 163 188 2,700 -300 Level FlightAware
03:14AM -16.7390 145.6850 158° South 161 185 2,600 -840 Descending FlightAware
03:15AM -16.7600 145.6950 158° South 160 184 2,200 -840 Descending Aus ATC (RADAR)
03:15AM -16.7580 145.6950 158° South 148 170 2,200 -720 Level FlightAware
03:15AM -16.7730 145.7020 156° South 143 165 1,900 -780 Descending FlightAware
03:15AM -16.7900 145.7090 158° South 120 138 1,500 -840 Descending FlightAware
03:16AM -16.7990 145.7130 157° South 123 142 1,300 -660 Descending FlightAware
03:16AM -16.8133 145.7198 157° South 124 143 1,100 -600 Descending Aus ATC (RADAR)
03:16AM -16.8140 145.7200 157° South 111 128 1,000 -420 Descending FlightAware
03:17AM -16.8250 145.7250 156° South 108 124 900 -480 Descending FlightAware
03:17AM -16.8380 145.7310 156° South 94 108 600 -600 Descending FlightAware
03:18AM -16.8490 145.7360 156° South 94 108 400 -540 Descending FlightAware
03:18AM -16.8612 145.7421 156° South 96 110 200 -420 Descending Aus ATC (RADAR)
03:18AM -16.8620 145.7420 156° South 91 105 200 -360 Level FlightAware
03:18AM -16.8660 145.7440 154° Southeast 89 102 100 -180 Descending FlightAware
03:19AM -16.8771 145.7487 154° Southeast 69 79 100  Level Aus ATC (RADAR)
03:19AM -16.8805 145.7496 165° South 41 47 100  Level Aus ATC (RADAR)
03:19AM -16.8822 145.7486 209° Southwest 36 41 100  Level Aus ATC (RADAR)